Terminal Aerodrome Forecast
Issued by NWS Nashville, TN

Current Version | Previous Version | Text Only | Print | Product List | Glossary Off
Versions: 1 2 3 4 5 6 7 8 9 10 11 12 13 14 15 16 17

000
FTUS44 KOHX 281137
TAFBNA
TAF
KBNA 281137Z 2812/2912 22004KT P6SM VCSH SCT009 OVC025
      TEMPO 2812/2815 3SM -SHRA BKN009 OVC025
     FM281500 21004KT 4SM -SHRA BR BKN007 OVC020
     FM282000 24007KT P6SM VCTS OVC015CB
     FM290000 VRB02KT P6SM OVC025
     FM290700 VRB02KT 5SM BR OVC015=

USA.gov is the U.S. government's official web portal to all federal, state and local government web resources and services.